Time;durP1;ratioP1;P1;durP2;ratioP2;P2;SDS_P1;SDS_P2;PMS_P1;PMS_P2;Temp;Humidity;BMP_temperature;BMP_pressure;BME280_temperature;BME280_humidity;BME280_pressure;Samples;Min_cycle;Max_cycle;Signal;HPM_P1;HPM_P2
2021/08/25 00:00:36;;;;;;;6.20;2.40;;;11.80;89.10;;;;;;6277044;22;20063;-76
2021/08/25 00:03:13;;;;;;;7.60;2.30;;;11.80;89.20;;;;;;6281104;22;20261;-77
2021/08/25 00:05:48;;;;;;;5.22;2.45;;;11.80;89.00;;;;;;6283264;22;20020;-77
2021/08/25 00:08:32;;;;;;;4.38;1.92;;;11.80;88.90;;;;;;6307476;22;20026;-78
2021/08/25 00:11:12;;;;;;;3.42;1.80;;;11.90;88.80;;;;;;6283389;22;20069;-76
2021/08/25 00:13:45;;;;;;;5.63;2.53;;;11.80;89.00;;;;;;6282942;22;20234;-76
2021/08/25 00:16:13;;;;;;;5.45;2.20;;;11.80;89.00;;;;;;6281564;22;20023;-75
2021/08/25 00:18:47;;;;;;;4.55;2.10;;;11.70;89.10;;;;;;6305230;22;20027;-75
2021/08/25 00:21:17;;;;;;;4.47;2.55;;;11.70;89.10;;;;;;6280021;22;20019;-77
2021/08/25 00:23:51;;;;;;;5.15;2.10;;;11.70;89.20;;;;;;6282674;22;20279;-77
2021/08/25 00:26:18;;;;;;;5.68;2.13;;;11.70;88.90;;;;;;6283974;22;20032;-77
2021/08/25 00:28:46;;;;;;;4.93;2.10;;;11.70;88.80;;;;;;6283620;22;20015;-77
2021/08/25 00:31:14;;;;;;;6.10;2.25;;;11.60;88.80;;;;;;6283962;22;20019;-77
2021/08/25 00:33:45;;;;;;;7.07;2.22;;;11.70;88.90;;;;;;6283571;22;20196;-77
2021/08/25 00:36:13;;;;;;;7.30;2.67;;;11.60;89.00;;;;;;6282519;22;20020;-77
2021/08/25 00:38:41;;;;;;;8.27;2.13;;;11.60;89.00;;;;;;6283378;22;20027;-78
2021/08/25 00:41:12;;;;;;;4.15;2.05;;;11.60;89.10;;;;;;6285017;22;20038;-78
2021/08/25 00:43:39;;;;;;;4.47;2.33;;;11.50;89.10;;;;;;6313605;22;20015;-79
2021/08/25 00:46:07;;;;;;;6.80;2.47;;;11.50;89.10;;;;;;6316252;22;20015;-77
2021/08/25 00:48:34;;;;;;;8.23;3.28;;;11.50;89.10;;;;;;6315893;22;20019;-77
2021/08/25 00:51:02;;;;;;;5.55;2.63;;;11.50;89.00;;;;;;6289600;22;20031;-76
2021/08/25 00:53:33;;;;;;;5.35;2.72;;;11.50;89.10;;;;;;6317213;22;20055;-77
2021/08/25 00:56:00;;;;;;;7.95;2.58;;;11.40;89.10;;;;;;6289974;22;20022;-77
2021/08/25 00:58:28;;;;;;;5.13;2.47;;;11.40;89.30;;;;;;6317268;22;20191;-77
2021/08/25 01:01:03;;;;;;;4.93;2.47;;;11.30;89.40;;;;;;6310797;22;20022;-76
2021/08/25 01:03:38;;;;;;;4.57;2.03;;;11.40;89.50;;;;;;6316652;22;20119;-76
2021/08/25 01:06:07;;;;;;;4.40;2.20;;;11.40;89.60;;;;;;6316773;22;20026;-77
2021/08/25 01:08:34;;;;;;;6.05;1.88;;;11.40;89.50;;;;;;6314803;22;20030;-78
2021/08/25 01:11:09;;;;;;;8.40;3.17;;;11.30;89.50;;;;;;6289078;22;20023;-77
2021/08/25 01:13:37;;;;;;;5.68;2.08;;;11.30;89.50;;;;;;6315781;22;20307;-77
2021/08/25 01:16:17;;;;;;;5.35;1.83;;;11.30;89.60;;;;;;3415001;22;10003220;-77
2021/08/25 01:18:47;;;;;;;5.43;2.13;;;11.30;89.50;;;;;;4551412;22;10001194;-78
2021/08/25 01:21:16;;;;;;;5.05;2.15;;;11.30;89.40;;;;;;6289808;22;20238;-77
2021/08/25 01:23:46;;;;;;;4.68;1.90;;;11.30;89.50;;;;;;6317967;22;20040;-77
2021/08/25 01:26:15;;;;;;;4.63;1.93;;;11.20;89.70;;;;;;6317160;22;20019;-77
2021/08/25 01:28:49;;;;;;;3.90;1.92;;;11.20;89.50;;;;;;6290196;22;20026;-78
2021/08/25 01:31:19;;;;;;;3.63;2.35;;;11.20;89.50;;;;;;6289808;22;20027;-79
2021/08/25 01:33:46;;;;;;;4.32;2.10;;;11.20;89.60;;;;;;6315298;22;20023;-79
2021/08/25 01:36:15;;;;;;;5.32;2.03;;;11.20;89.60;;;;;;6311759;22;20053;-77
2021/08/25 01:38:50;;;;;;;5.32;2.40;;;11.20;89.80;;;;;;6311971;22;20034;-77
2021/08/25 01:41:19;;;;;;;4.60;2.20;;;11.20;89.80;;;;;;6311808;22;20076;-78
2021/08/25 01:43:46;;;;;;;4.20;2.00;;;11.10;89.80;;;;;;6313214;22;20041;-78
2021/08/25 01:46:26;;;;;;;4.65;2.17;;;11.10;89.90;;;;;;6312004;22;20019;-77
2021/08/25 01:48:54;;;;;;;4.05;2.10;;;11.10;90.00;;;;;;6285144;22;20361;-77
2021/08/25 01:51:22;;;;;;;4.97;2.22;;;11.10;89.90;;;;;;6282806;22;20319;-77
2021/08/25 01:53:49;;;;;;;4.72;2.53;;;11.10;89.80;;;;;;6313651;22;20039;-76
2021/08/25 01:56:16;;;;;;;5.30;2.03;;;11.10;89.90;;;;;;6310972;22;20070;-77
2021/08/25 01:58:44;;;;;;;6.32;1.77;;;11.10;89.80;;;;;;6310849;22;20101;-76
2021/08/25 02:01:11;;;;;;;6.47;2.00;;;11.10;89.90;;;;;;6306844;22;20027;-76
2021/08/25 02:03:40;;;;;;;5.60;2.20;;;11.10;89.80;;;;;;6307906;22;20019;-77
2021/08/25 02:06:07;;;;;;;4.97;2.33;;;11.10;89.80;;;;;;6310064;22;20046;-77
2021/08/25 02:08:34;;;;;;;4.93;2.28;;;11.10;89.80;;;;;;6281915;22;20379;-76
2021/08/25 02:11:02;;;;;;;4.32;2.00;;;11.10;89.90;;;;;;6311544;22;20019;-77
2021/08/25 02:13:29;;;;;;;5.05;2.05;;;11.10;89.80;;;;;;6314532;22;20072;-77
2021/08/25 02:15:57;;;;;;;4.22;1.88;;;11.00;89.90;;;;;;6311531;22;20328;-77
2021/08/25 02:18:24;;;;;;;7.18;2.70;;;10.90;89.90;;;;;;6312251;22;20046;-77
2021/08/25 02:20:52;;;;;;;4.40;1.92;;;10.90;90.00;;;;;;6285960;22;20015;-77
2021/08/25 02:23:20;;;;;;;5.85;2.05;;;10.90;90.10;;;;;;6313017;22;20340;-78
2021/08/25 02:25:47;;;;;;;4.05;1.80;;;10.80;89.80;;;;;;6286607;22;20066;-78
2021/08/25 02:28:15;;;;;;;4.40;1.75;;;10.70;89.70;;;;;;6285822;22;20027;-78
2021/08/25 02:30:42;;;;;;;6.82;2.22;;;10.60;90.00;;;;;;6314974;22;20039;-78
2021/08/25 02:33:09;;;;;;;5.18;1.95;;;10.60;90.20;;;;;;6315651;22;20030;-77
2021/08/25 02:35:36;;;;;;;4.28;2.30;;;10.60;90.20;;;;;;6283025;22;20041;-77
2021/08/25 02:38:05;;;;;;;5.40;2.08;;;10.60;90.20;;;;;;6284187;22;20070;-78
2021/08/25 02:40:33;;;;;;;5.55;1.88;;;10.50;90.30;;;;;;6310772;22;20038;-77
2021/08/25 02:43:00;;;;;;;6.32;2.05;;;10.50;90.40;;;;;;6311345;22;20257;-76
2021/08/25 02:45:27;;;;;;;4.80;1.50;;;10.50;90.50;;;;;;6310371;22;20380;-78
2021/08/25 02:47:54;;;;;;;4.40;1.80;;;10.50;90.50;;;;;;6312971;22;20031;-78
2021/08/25 02:50:21;;;;;;;4.47;1.75;;;10.50;90.40;;;;;;6312160;22;20334;-77
2021/08/25 02:52:50;;;;;;;6.65;2.00;;;10.50;90.70;;;;;;6285246;22;20058;-76
2021/08/25 02:55:18;;;;;;;4.13;1.95;;;10.50;90.30;;;;;;6311366;22;20019;-77
2021/08/25 02:57:45;;;;;;;5.85;1.90;;;10.50;90.10;;;;;;6313166;22;20019;-77
2021/08/25 03:00:13;;;;;;;4.38;1.90;;;10.50;90.10;;;;;;6282358;22;20034;-77
2021/08/25 03:02:40;;;;;;;4.75;2.05;;;10.40;90.10;;;;;;6312574;22;20034;-76
2021/08/25 03:05:08;;;;;;;4.18;2.15;;;10.30;90.40;;;;;;6287264;22;20019;-77
2021/08/25 03:07:35;;;;;;;4.50;1.80;;;10.30;90.50;;;;;;6313235;22;20035;-77
2021/08/25 03:10:03;;;;;;;6.97;2.45;;;10.30;90.50;;;;;;6313638;22;20029;-77
2021/08/25 03:12:32;;;;;;;6.00;2.22;;;10.30;90.60;;;;;;6315248;22;20050;-77
2021/08/25 03:14:59;;;;;;;4.00;1.92;;;10.30;90.60;;;;;;6287100;22;20053;-77
2021/08/25 03:17:26;;;;;;;4.30;2.00;;;10.30;90.70;;;;;;6312090;22;20291;-77
2021/08/25 03:19:53;;;;;;;4.63;2.08;;;10.30;90.70;;;;;;6309624;22;20039;-76
2021/08/25 03:22:20;;;;;;;5.55;2.20;;;10.30;90.80;;;;;;6306726;22;20042;-75
2021/08/25 03:24:47;;;;;;;5.78;2.17;;;10.30;90.60;;;;;;6310634;22;20033;-77
2021/08/25 03:27:15;;;;;;;4.75;1.83;;;10.20;90.60;;;;;;6282541;22;20039;-77
2021/08/25 03:29:43;;;;;;;6.00;2.40;;;10.20;90.50;;;;;;6282305;22;20015;-77
2021/08/25 03:32:10;;;;;;;7.90;2.22;;;10.20;90.80;;;;;;6285592;22;20019;-77
2021/08/25 03:34:37;;;;;;;6.32;1.92;;;10.20;90.70;;;;;;6309605;22;20027;-77
2021/08/25 03:37:05;;;;;;;5.03;1.65;;;10.10;90.80;;;;;;6312123;22;20023;-77
2021/08/25 03:39:33;;;;;;;5.78;2.20;;;10.10;90.90;;;;;;6281671;22;20357;-77
2021/08/25 03:42:00;;;;;;;3.95;1.98;;;10.10;91.10;;;;;;6309764;22;20031;-77
2021/08/25 03:44:29;;;;;;;5.47;2.40;;;10.10;91.00;;;;;;6309398;22;20053;-77
2021/08/25 03:46:57;;;;;;;5.30;2.15;;;10.10;90.90;;;;;;6310443;22;20023;-77
2021/08/25 03:49:24;;;;;;;5.20;2.03;;;10.10;90.90;;;;;;6309994;22;20077;-76
2021/08/25 03:51:52;;;;;;;5.53;2.40;;;10.10;91.00;;;;;;6282617;22;20022;-77
2021/08/25 03:54:19;;;;;;;6.65;2.22;;;10.10;91.00;;;;;;6312735;22;20041;-77
2021/08/25 03:56:46;;;;;;;4.70;2.33;;;10.10;90.80;;;;;;6311780;22;20041;-77
2021/08/25 03:59:13;;;;;;;6.35;2.38;;;10.10;90.80;;;;;;6314439;22;20083;-78
2021/08/25 04:01:41;;;;;;;7.45;2.67;;;10.10;90.70;;;;;;6307900;22;20333;-77
2021/08/25 04:04:10;;;;;;;6.88;2.50;;;10.10;90.60;;;;;;6315375;22;20042;-77
2021/08/25 04:06:37;;;;;;;8.75;2.42;;;10.10;90.50;;;;;;6285635;22;20027;-77
2021/08/25 04:09:05;;;;;;;4.50;2.10;;;10.10;90.30;;;;;;6314578;22;20015;-78
2021/08/25 04:11:32;;;;;;;6.47;2.28;;;10.00;90.40;;;;;;6311940;22;20030;-78
2021/08/25 04:14:00;;;;;;;7.75;2.97;;;10.00;90.50;;;;;;6314220;22;20023;-77
2021/08/25 04:16:28;;;;;;;5.25;2.22;;;10.00;90.60;;;;;;6314679;22;20019;-78
2021/08/25 04:18:57;;;;;;;6.55;2.10;;;9.90;90.50;;;;;;6312968;22;20050;-78
2021/08/25 04:21:26;;;;;;;6.72;2.13;;;9.90;90.40;;;;;;6313935;22;20241;-76
2021/08/25 04:23:53;;;;;;;5.55;2.70;;;9.90;90.70;;;;;;6314193;22;20038;-77
2021/08/25 04:26:20;;;;;;;8.63;2.33;;;9.90;90.70;;;;;;6312961;22;20039;-77
2021/08/25 04:28:47;;;;;;;4.97;2.30;;;9.80;90.80;;;;;;6314801;22;20030;-75
2021/08/25 04:31:14;;;;;;;6.88;2.25;;;9.90;91.00;;;;;;6287489;22;20039;-76
2021/08/25 04:33:42;;;;;;;8.48;2.35;;;9.90;90.70;;;;;;6314137;22;20027;-77
2021/08/25 04:36:10;;;;;;;3.95;2.15;;;9.90;90.80;;;;;;6313126;22;20253;-77
2021/08/25 04:38:38;;;;;;;4.75;2.20;;;9.90;90.70;;;;;;6314024;22;20038;-78
2021/08/25 04:41:05;;;;;;;5.75;2.13;;;9.90;90.60;;;;;;6287539;22;20078;-77
2021/08/25 04:43:33;;;;;;;5.57;1.95;;;9.90;90.50;;;;;;6282713;22;20376;-78
2021/08/25 04:46:00;;;;;;;7.85;2.50;;;9.90;90.70;;;;;;6282505;22;20025;-77
2021/08/25 04:48:29;;;;;;;5.40;2.30;;;10.00;90.50;;;;;;6284602;22;20028;-77
2021/08/25 04:50:56;;;;;;;5.80;2.00;;;10.00;90.40;;;;;;6284939;22;20233;-78
2021/08/25 04:53:24;;;;;;;7.63;2.35;;;10.00;90.50;;;;;;6283360;22;20271;-77
2021/08/25 04:55:52;;;;;;;3.78;1.73;;;10.00;90.40;;;;;;6285982;22;20023;-77
2021/08/25 04:58:20;;;;;;;5.30;1.88;;;10.10;90.30;;;;;;6281071;22;20035;-78
2021/08/25 05:00:48;;;;;;;11.25;2.30;;;10.10;90.40;;;;;;6277293;22;20047;-77
2021/08/25 05:03:16;;;;;;;5.30;2.10;;;10.10;90.30;;;;;;6281398;22;20479;-77
2021/08/25 05:05:43;;;;;;;6.25;1.95;;;10.10;90.30;;;;;;6284206;22;20046;-78
2021/08/25 05:08:10;;;;;;;5.35;2.55;;;10.20;90.30;;;;;;6281606;22;20019;-76
2021/08/25 05:10:38;;;;;;;6.50;2.00;;;10.20;90.10;;;;;;6277779;22;20245;-77
2021/08/25 05:13:06;;;;;;;5.65;2.08;;;10.30;89.90;;;;;;6282180;22;20016;-77
2021/08/25 05:15:33;;;;;;;5.72;2.80;;;10.30;89.70;;;;;;6282470;22;20023;-77
2021/08/25 05:18:01;;;;;;;7.30;2.33;;;10.40;90.00;;;;;;6280106;22;20024;-77
2021/08/25 05:20:30;;;;;;;6.07;2.00;;;10.40;89.90;;;;;;6278796;22;20026;-77
2021/08/25 05:22:58;;;;;;;4.90;2.00;;;10.40;89.90;;;;;;6282576;22;20070;-77
2021/08/25 05:25:25;;;;;;;4.80;2.60;;;10.50;89.70;;;;;;6281659;22;20027;-76
2021/08/25 05:27:52;;;;;;;4.28;2.10;;;10.50;89.70;;;;;;6279961;22;20023;-77
2021/08/25 05:30:21;;;;;;;5.20;2.03;;;10.60;89.50;;;;;;6279375;22;20027;-78
2021/08/25 05:32:51;;;;;;;9.77;2.22;;;10.70;89.30;;;;;;6282433;22;20024;-77
2021/08/25 05:35:19;;;;;;;;;;;10.70;89.30;;;;;;6282205;22;20027;-77
2021/08/25 05:37:46;;;;;;;6.05;1.33;;;10.70;89.30;;;;;;6280744;22;19919;-77
2021/08/25 05:40:14;;;;;;;6.18;2.35;;;10.80;89.20;;;;;;6282959;22;20032;-78
2021/08/25 05:42:41;;;;;;;5.15;2.10;;;10.80;89.00;;;;;;6299647;22;20031;-78
2021/08/25 05:45:10;;;;;;;4.63;1.70;;;10.90;89.00;;;;;;6316750;22;20030;-79
2021/08/25 05:47:39;;;;;;;3.83;1.98;;;10.90;89.00;;;;;;6314748;22;20082;-77
2021/08/25 05:50:08;;;;;;;8.85;2.65;;;11.00;88.90;;;;;;6313074;22;20030;-77
2021/08/25 05:52:35;;;;;;;7.93;2.42;;;11.00;89.00;;;;;;6314294;22;20034;-77
2021/08/25 05:55:03;;;;;;;5.00;2.45;;;11.10;89.00;;;;;;6288320;22;20015;-77
2021/08/25 05:57:30;;;;;;;5.32;2.22;;;11.10;89.10;;;;;;6312429;22;20314;-77
2021/08/25 05:59:57;;;;;;;5.55;2.10;;;11.20;88.80;;;;;;6286203;22;20104;-77
2021/08/25 06:02:25;;;;;;;5.75;2.17;;;11.30;88.60;;;;;;6282639;22;20019;-78
2021/08/25 06:04:53;;;;;;;5.38;2.00;;;11.40;88.50;;;;;;6286293;22;20364;-78
2021/08/25 06:07:21;;;;;;;5.70;2.08;;;11.40;88.50;;;;;;6315487;22;20019;-79
2021/08/25 06:09:48;;;;;;;5.95;2.17;;;11.60;88.30;;;;;;6286183;22;20022;-77
2021/08/25 06:12:15;;;;;;;7.05;2.35;;;11.70;87.90;;;;;;6287842;22;20034;-77
2021/08/25 06:14:42;;;;;;;6.38;1.90;;;11.70;87.90;;;;;;6287128;22;20037;-77
2021/08/25 06:17:09;;;;;;;4.72;1.88;;;11.90;87.60;;;;;;6314801;22;20045;-75
2021/08/25 06:19:36;;;;;;;5.22;1.88;;;12.00;87.60;;;;;;6285717;22;20046;-80
2021/08/25 06:22:05;;;;;;;5.22;1.98;;;12.10;87.50;;;;;;6314382;22;20039;-76
2021/08/25 06:24:32;;;;;;;6.10;2.03;;;12.20;87.20;;;;;;6313657;22;20345;-78
2021/08/25 06:26:59;;;;;;;4.50;2.00;;;12.30;87.40;;;;;;6285620;22;20030;-77
2021/08/25 06:29:26;;;;;;;4.57;1.83;;;12.40;86.80;;;;;;6314065;22;20023;-77
2021/08/25 06:31:53;;;;;;;4.68;2.10;;;12.60;86.20;;;;;;6285927;22;20069;-78
2021/08/25 06:34:21;;;;;;;3.65;1.65;;;12.70;86.50;;;;;;6312166;22;20262;-77
2021/08/25 06:36:48;;;;;;;5.53;2.13;;;12.80;85.70;;;;;;6311468;22;20085;-77
2021/08/25 06:39:16;;;;;;;4.43;1.90;;;13.00;85.00;;;;;;6310442;22;20046;-75
2021/08/25 06:41:44;;;;;;;5.95;1.65;;;13.10;84.00;;;;;;6311596;22;20348;-77
2021/08/25 06:44:11;;;;;;;4.95;2.20;;;13.20;83.80;;;;;;6287989;22;20082;-77
2021/08/25 06:46:40;;;;;;;5.95;2.38;;;13.30;83.20;;;;;;6285684;22;20023;-77
2021/08/25 06:49:07;;;;;;;4.95;1.80;;;13.40;83.20;;;;;;6312936;22;20015;-77
2021/08/25 06:51:34;;;;;;;4.95;1.70;;;13.40;83.30;;;;;;6310116;22;20027;-76
2021/08/25 06:54:01;;;;;;;5.15;1.77;;;13.50;82.90;;;;;;6285530;22;20047;-77
2021/08/25 06:56:31;;;;;;;6.05;2.42;;;13.70;82.50;;;;;;6311129;22;20044;-77
2021/08/25 06:58:58;;;;;;;6.65;2.17;;;13.80;81.80;;;;;;6311773;22;20015;-77
2021/08/25 07:01:25;;;;;;;6.15;1.70;;;13.80;81.10;;;;;;6307208;22;20034;-77
2021/08/25 07:03:52;;;;;;;4.75;2.03;;;13.90;81.00;;;;;;6312960;22;20010;-77
2021/08/25 07:06:20;;;;;;;7.68;2.00;;;14.00;80.90;;;;;;6285444;22;20027;-77
2021/08/25 07:08:47;;;;;;;8.98;1.58;;;14.10;80.50;;;;;;6312736;22;20046;-78
2021/08/25 07:11:15;;;;;;;3.58;1.50;;;14.10;80.50;;;;;;6312268;22;20027;-77
2021/08/25 07:13:45;;;;;;;5.23;1.70;;;14.20;80.10;;;;;;6283346;22;20023;-76
2021/08/25 07:16:14;;;;;;;3.92;1.23;;;14.40;80.00;;;;;;6312173;22;20023;-76
2021/08/25 07:18:43;;;;;;;6.60;2.13;;;14.50;79.20;;;;;;6312984;22;20019;-76
2021/08/25 07:21:11;;;;;;;4.32;1.50;;;14.60;79.00;;;;;;6312594;22;20058;-77
2021/08/25 07:23:39;;;;;;;3.45;1.38;;;14.70;78.20;;;;;;6285530;22;20076;-77
2021/08/25 07:26:06;;;;;;;4.22;1.40;;;14.80;77.70;;;;;;6286519;22;20070;-76
2021/08/25 07:28:33;;;;;;;3.85;1.42;;;14.90;77.80;;;;;;6284405;22;20027;-78
2021/08/25 07:31:02;;;;;;;6.50;2.00;;;15.10;77.10;;;;;;6286296;22;20023;-77
2021/08/25 07:33:29;;;;;;;5.70;1.45;;;15.20;75.00;;;;;;6311928;22;20025;-76
2021/08/25 07:35:58;;;;;;;6.30;1.48;;;15.20;74.60;;;;;;6284235;22;20264;-78
2021/08/25 07:38:25;;;;;;;5.47;1.50;;;15.20;74.50;;;;;;6314226;22;20034;-77
2021/08/25 07:40:52;;;;;;;5.10;1.80;;;15.30;74.40;;;;;;6288091;22;20023;-77
2021/08/25 07:43:19;;;;;;;3.25;1.25;;;15.30;74.30;;;;;;6314150;22;20046;-77
2021/08/25 07:45:46;;;;;;;3.75;1.50;;;15.50;74.40;;;;;;6313937;22;20061;-77
2021/08/25 07:48:24;;;;;;;8.30;1.85;;;15.60;74.60;;;;;;6318084;22;20047;-79
2021/08/25 07:50:53;;;;;;;4.25;1.50;;;15.70;74.20;;;;;;6288483;22;20539;-77
2021/08/25 07:53:21;;;;;;;4.25;1.38;;;15.70;74.30;;;;;;6315401;22;20046;-78
2021/08/25 07:55:48;;;;;;;3.20;1.42;;;15.80;74.50;;;;;;6288129;22;20034;-79
2021/08/25 07:58:16;;;;;;;6.63;1.52;;;15.90;73.80;;;;;;6286758;22;20288;-77
2021/08/25 08:00:43;;;;;;;5.80;1.83;;;16.10;73.70;;;;;;6309555;22;20057;-78
2021/08/25 08:03:10;;;;;;;4.53;1.90;;;16.20;73.20;;;;;;6288402;22;20061;-80
2021/08/25 08:05:43;;;;;;;5.55;1.48;;;16.30;73.50;;;;;;6315932;22;20015;-78
2021/08/25 08:08:10;;;;;;;4.10;1.98;;;16.30;72.40;;;;;;6317679;22;20027;-78
2021/08/25 08:10:38;;;;;;;3.13;1.65;;;16.40;73.20;;;;;;6313352;22;20207;-78
2021/08/25 08:13:05;;;;;;;4.07;1.65;;;16.40;72.90;;;;;;6316341;22;20023;-75
2021/08/25 08:15:33;;;;;;;3.60;1.40;;;16.60;73.10;;;;;;6317308;22;20097;-76
2021/08/25 08:18:09;;;;;;;3.55;1.40;;;16.80;72.20;;;;;;6288478;22;20023;-76
2021/08/25 08:20:36;;;;;;;3.45;1.33;;;16.80;72.10;;;;;;6313660;22;20030;-76
2021/08/25 08:23:05;;;;;;;5.68;1.50;;;16.90;72.00;;;;;;6287343;22;20030;-77
2021/08/25 08:25:33;;;;;;;3.85;1.40;;;16.90;72.40;;;;;;6316080;22;20023;-77
2021/08/25 08:28:00;;;;;;;4.15;1.38;;;17.10;71.30;;;;;;6285110;22;20021;-78
2021/08/25 08:30:32;;;;;;;4.30;1.50;;;17.30;71.00;;;;;;6313479;22;20238;-77
2021/08/25 08:33:00;;;;;;;3.72;1.40;;;17.50;69.20;;;;;;6286649;22;20318;-78
2021/08/25 08:35:36;;;;;;;3.42;1.45;;;17.50;69.20;;;;;;6313469;22;20104;-77
2021/08/25 08:38:04;;;;;;;4.18;1.55;;;17.60;69.50;;;;;;6312849;22;20030;-78
2021/08/25 08:40:32;;;;;;;5.80;1.85;;;17.80;69.10;;;;;;6285613;22;20033;-77
2021/08/25 08:43:05;;;;;;;3.97;1.58;;;17.90;68.30;;;;;;6280165;22;20255;-77
2021/08/25 08:45:37;;;;;;;3.20;1.42;;;18.00;67.70;;;;;;6283297;22;20024;-77
2021/08/25 08:48:07;;;;;;;4.22;1.65;;;18.20;68.00;;;;;;6282893;22;20030;-77
2021/08/25 08:50:35;;;;;;;4.57;1.60;;;18.30;67.50;;;;;;6282528;22;20366;-77
2021/08/25 08:53:03;;;;;;;2.85;1.33;;;18.40;67.50;;;;;;6280116;22;20031;-77
2021/08/25 08:55:35;;;;;;;3.47;1.35;;;18.50;67.90;;;;;;6281363;22;20054;-77
2021/08/25 08:58:02;;;;;;;5.65;1.88;;;18.70;66.80;;;;;;6284818;22;20038;-77
2021/08/25 09:00:30;;;;;;;5.18;1.80;;;18.80;66.50;;;;;;6276929;22;20318;-77
2021/08/25 09:02:57;;;;;;;5.03;1.35;;;18.90;64.30;;;;;;6283710;22;20219;-78
2021/08/25 09:05:27;;;;;;;3.33;1.45;;;19.00;64.90;;;;;;6284157;22;20235;-77
2021/08/25 09:07:57;;;;;;;3.45;1.50;;;19.20;63.70;;;;;;6284372;22;20077;-77
2021/08/25 09:10:29;;;;;;;4.32;1.70;;;19.40;63.00;;;;;;6284928;22;20032;-77
2021/08/25 09:13:00;;;;;;;4.15;1.70;;;19.60;62.70;;;;;;6283702;22;20066;-79
2021/08/25 09:15:36;;;;;;;5.53;1.63;;;19.60;61.10;;;;;;6284872;22;20030;-77
2021/08/25 09:18:05;;;;;;;5.32;1.42;;;19.60;61.30;;;;;;6283312;22;20019;-77
2021/08/25 09:20:34;;;;;;;5.10;1.37;;;19.80;60.40;;;;;;6285236;22;20027;-77
2021/08/25 09:23:14;;;;;;;4.97;1.88;;;19.90;59.00;;;;;;6283438;22;20469;-77
2021/08/25 09:25:43;;;;;;;3.33;1.40;;;19.90;59.00;;;;;;6284290;22;20020;-77
2021/08/25 09:28:13;;;;;;;3.75;1.52;;;20.10;59.20;;;;;;6281196;22;20047;-77
2021/08/25 09:30:58;;;;;;;4.05;1.63;;;20.30;60.10;;;;;;6280360;22;20047;-77
2021/08/25 09:33:27;;;;;;;5.40;1.58;;;20.30;57.80;;;;;;6282457;22;20043;-77
2021/08/25 09:35:59;;;;;;;4.65;1.17;;;20.60;55.10;;;;;;6284276;22;20023;-77
2021/08/25 09:38:28;;;;;;;3.83;1.50;;;20.70;55.40;;;;;;6281633;22;20011;-77
2021/08/25 09:40:57;;;;;;;4.10;1.23;;;20.90;55.90;;;;;;6285424;22;20024;-77
2021/08/25 09:43:38;;;;;;;4.63;1.67;;;21.10;53.80;;;;;;6278474;22;20028;-77
2021/08/25 09:46:10;;;;;;;2.55;1.10;;;21.20;48.50;;;;;;6282319;22;20030;-77
2021/08/25 09:48:40;;;;;;;5.03;2.15;;;21.40;47.70;;;;;;6280961;22;20039;-77
2021/08/25 09:51:07;;;;;;;3.78;1.52;;;21.30;47.00;;;;;;6281236;22;20047;-79
2021/08/25 09:53:35;;;;;;;6.65;1.67;;;21.50;46.70;;;;;;6279145;22;20031;-75
2021/08/25 09:56:17;;;;;;;5.75;1.60;;;21.90;47.40;;;;;;6275666;22;20557;-77
2021/08/25 09:58:45;;;;;;;4.00;1.48;;;22.30;48.40;;;;;;6271461;22;20054;-76
2021/08/25 10:01:14;;;;;;;5.78;1.45;;;22.80;48.90;;;;;;6271151;22;20071;-77
2021/08/25 10:03:41;;;;;;;4.32;1.40;;;23.10;48.90;;;;;;6274170;22;20034;-77
2021/08/25 10:06:08;;;;;;;5.40;1.70;;;23.40;47.00;;;;;;6276919;22;20023;-77
2021/08/25 10:08:36;;;;;;;7.60;5.05;;;23.60;45.10;;;;;;6274383;22;20028;-76
2021/08/25 10:11:03;;;;;;;6.35;2.03;;;23.60;44.00;;;;;;6274800;22;20023;-77
2021/08/25 10:13:31;;;;;;;5.13;1.42;;;23.60;43.00;;;;;;6277351;22;20028;-77
2021/08/25 10:16:00;;;;;;;4.45;1.48;;;24.00;40.80;;;;;;6278200;22;20035;-77
2021/08/25 10:18:30;;;;;;;5.40;1.60;;;24.50;41.50;;;;;;6279181;22;20111;-77
2021/08/25 10:20:59;;;;;;;5.97;1.85;;;25.30;39.20;;;;;;6266928;22;20023;-78
2021/08/25 10:24:04;;;;;;;4.00;1.42;;;24.30;40.00;;;;;;6264691;22;20073;-79
2021/08/25 10:26:33;;;;;;;3.72;1.30;;;24.00;43.60;;;;;;6262199;22;20184;-77
2021/08/25 10:29:06;;;;;;;3.97;1.30;;;26.00;39.50;;;;;;6284284;22;20024;-77
2021/08/25 10:32:07;;;;;;;4.22;1.50;;;27.70;35.90;;;;;;6278216;22;20027;-78
2021/08/25 10:34:43;;;;;;;4.68;1.45;;;29.00;33.60;;;;;;6289965;22;20016;-77
2021/08/25 10:37:30;;;;;;;5.95;1.85;;;29.90;31.60;;;;;;6282714;22;20046;-78
2021/08/25 10:40:03;;;;;;;4.20;1.70;;;30.50;28.60;;;;;;6280605;22;20230;-78
2021/08/25 10:42:48;;;;;;;3.63;1.20;;;30.90;31.00;;;;;;6283600;22;20038;-77
2021/08/25 10:45:16;;;;;;;7.30;1.60;;;30.70;29.30;;;;;;6284043;22;20044;-77
2021/08/25 10:47:58;;;;;;;2.83;1.30;;;30.90;28.70;;;;;;6313634;22;20046;-76
2021/08/25 10:50:50;;;;;;;3.97;1.65;;;31.70;27.70;;;;;;6312248;22;20034;-76
2021/08/25 10:53:40;;;;;;;5.82;1.25;;;32.20;26.70;;;;;;6284525;22;20368;-78
2021/08/25 10:56:12;;;;;;;3.78;1.50;;;32.20;26.00;;;;;;6286360;22;20015;-77
2021/08/25 10:58:47;;;;;;;3.33;1.52;;;32.10;26.20;;;;;;6312999;22;20034;-76
2021/08/25 11:01:26;;;;;;;4.47;1.45;;;32.50;28.00;;;;;;6311619;22;20203;-76
2021/08/25 11:03:54;;;;;;;5.80;1.85;;;33.30;24.00;;;;;;6314431;22;20053;-77
2021/08/25 11:06:40;;;;;;;3.22;1.42;;;33.80;24.60;;;;;;6313484;22;20049;-77
2021/08/25 11:09:15;;;;;;;3.75;1.38;;;33.60;23.50;;;;;;6312981;22;20037;-77
2021/08/25 11:11:46;;;;;;;4.40;1.85;;;32.40;24.40;;;;;;6313232;22;20025;-78
2021/08/25 11:14:25;;;;;;;4.82;1.80;;;33.30;24.60;;;;;;6286204;22;20033;-77
2021/08/25 11:16:55;;;;;;;4.47;1.63;;;33.70;24.60;;;;;;6312435;22;20338;-77
2021/08/25 11:19:25;;;;;;;4.05;1.65;;;34.50;23.40;;;;;;6313293;22;20019;-78
2021/08/25 11:21:54;;;;;;;7.25;1.70;;;34.00;23.00;;;;;;6313842;22;20015;-77
2021/08/25 11:24:22;;;;;;;11.10;1.75;;;33.10;23.80;;;;;;6314506;22;20027;-76
2021/08/25 11:26:50;;;;;;;4.32;1.52;;;33.50;25.10;;;;;;6315956;22;20015;-76
2021/08/25 11:29:22;;;;;;;3.53;1.60;;;34.50;23.70;;;;;;6312622;22;20313;-77
2021/08/25 11:31:50;;;;;;;4.75;1.80;;;34.50;22.80;;;;;;6285194;22;20028;-76
2021/08/25 11:34:18;;;;;;;5.67;2.10;;;34.90;23.40;;;;;;6315760;22;20019;-76
2021/08/25 11:37:03;;;;;;;5.28;1.90;;;35.50;23.50;;;;;;6311656;22;20049;-75
2021/08/25 11:39:32;;;;;;;3.83;1.50;;;36.00;22.10;;;;;;6311886;22;20038;-77
2021/08/25 11:42:01;;;;;;;4.82;1.50;;;35.70;22.80;;;;;;6312767;22;20222;-78
2021/08/25 11:44:39;;;;;;;5.00;2.05;;;35.80;21.30;;;;;;6314157;22;20018;-76
2021/08/25 11:47:19;;;;;;;4.70;1.70;;;34.90;21.40;;;;;;6286912;22;20023;-76
2021/08/25 11:49:49;;;;;;;4.65;1.60;;;34.00;22.50;;;;;;6313036;22;20019;-77
2021/08/25 11:52:20;;;;;;;5.38;1.85;;;33.50;23.40;;;;;;6286515;22;20034;-76
2021/08/25 11:54:48;;;;;;;4.78;1.90;;;34.90;22.30;;;;;;6317110;22;20011;-77
2021/08/25 11:57:17;;;;;;;3.55;1.42;;;36.00;21.40;;;;;;6311376;22;20088;-77
2021/08/25 11:59:57;;;;;;;3.53;1.52;;;37.30;20.40;;;;;;6316135;22;20030;-78
2021/08/25 12:02:26;;;;;;;5.85;2.03;;;38.20;20.20;;;;;;6279697;22;20238;-77
2021/08/25 12:04:53;;;;;;;3.58;1.77;;;38.40;19.70;;;;;;6311816;22;20023;-76
2021/08/25 12:07:22;;;;;;;5.57;1.58;;;38.50;19.60;;;;;;6311036;22;20031;-76
2021/08/25 12:09:48;;;;;;;;;;;38.00;19.60;;;;;;6312193;22;20120;-76
2021/08/25 12:12:16;;;;;;;4.32;1.85;;;38.80;19.40;;;;;;6310167;22;20194;-76
2021/08/25 12:14:51;;;;;;;4.97;1.77;;;38.40;19.30;;;;;;6286044;22;20275;-76
2021/08/25 12:17:19;;;;;;;4.05;1.60;;;38.40;18.90;;;;;;6285754;22;20027;-76
2021/08/25 12:20:03;;;;;;;3.30;1.63;;;38.70;19.40;;;;;;6314388;22;20023;-76
2021/08/25 12:22:32;;;;;;;6.72;1.75;;;38.80;19.10;;;;;;6312651;22;20019;-76
2021/08/25 12:25:00;;;;;;;4.07;1.80;;;36.80;20.30;;;;;;6286463;22;20015;-76
2021/08/25 12:27:46;;;;;;;3.65;1.50;;;38.00;19.30;;;;;;6283363;22;20148;-75
2021/08/25 12:30:15;;;;;;;5.13;1.92;;;37.60;19.60;;;;;;6312290;22;20027;-76
2021/08/25 12:32:44;;;;;;;4.93;1.80;;;38.90;19.00;;;;;;6285215;22;20062;-77
2021/08/25 12:35:12;;;;;;;5.28;1.83;;;38.70;19.40;;;;;;6287666;22;20027;-76
2021/08/25 12:37:51;;;;;;;4.03;1.83;;;39.20;19.30;;;;;;6312785;22;20015;-78
2021/08/25 12:40:22;;;;;;;3.15;1.42;;;38.60;19.70;;;;;;6314494;22;20019;-77
2021/08/25 12:42:50;;;;;;;3.75;1.65;;;37.90;20.70;;;;;;6313851;22;20222;-78
2021/08/25 12:45:17;;;;;;;6.03;1.52;;;38.40;19.40;;;;;;6313234;22;20079;-75
2021/08/25 12:47:48;;;;;;;6.78;1.42;;;39.30;18.70;;;;;;6314709;22;20059;-75
2021/08/25 12:50:17;;;;;;;4.40;1.95;;;39.60;18.40;;;;;;6315444;22;20019;-75
2021/08/25 12:52:44;;;;;;;4.53;1.70;;;39.60;18.60;;;;;;6314701;22;20015;-75
2021/08/25 12:55:13;;;;;;;6.35;1.90;;;40.40;18.30;;;;;;6287375;22;20322;-75
2021/08/25 12:57:41;;;;;;;4.60;1.70;;;39.60;18.60;;;;;;6318221;22;20034;-76
2021/08/25 13:00:11;;;;;;;3.20;1.50;;;37.50;19.80;;;;;;6281167;22;20249;-75